sensor_id;sensor_type;location;lat;lon;timestamp;P1;durP1;ratioP1;P2;durP2;ratioP2
29422;SDS011;16399;51.686;8.684;2023-12-20T00:02:13;15.28;;;8.83;;
29422;SDS011;16399;51.686;8.684;2023-12-20T00:05:15;15.05;;;8.40;;
29422;SDS011;16399;51.686;8.684;2023-12-20T00:08:18;16.52;;;9.08;;
29422;SDS011;16399;51.686;8.684;2023-12-20T00:11:20;13.75;;;8.10;;
29422;SDS011;16399;51.686;8.684;2023-12-20T00:14:22;14.63;;;9.08;;
29422;SDS011;16399;51.686;8.684;2023-12-20T00:17:25;15.10;;;8.70;;
29422;SDS011;16399;51.686;8.684;2023-12-20T00:20:27;13.22;;;8.35;;
29422;SDS011;16399;51.686;8.684;2023-12-20T00:23:30;13.88;;;8.55;;
29422;SDS011;16399;51.686;8.684;2023-12-20T00:26:32;14.60;;;8.95;;
29422;SDS011;16399;51.686;8.684;2023-12-20T00:29:35;14.15;;;8.15;;
29422;SDS011;16399;51.686;8.684;2023-12-20T00:32:37;13.30;;;7.58;;
29422;SDS011;16399;51.686;8.684;2023-12-20T00:35:39;10.88;;;6.65;;
29422;SDS011;16399;51.686;8.684;2023-12-20T00:38:42;11.30;;;6.72;;
29422;SDS011;16399;51.686;8.684;2023-12-20T00:41:44;12.58;;;5.60;;
29422;SDS011;16399;51.686;8.684;2023-12-20T00:44:46;8.83;;;5.05;;
29422;SDS011;16399;51.686;8.684;2023-12-20T00:47:49;12.05;;;5.97;;
29422;SDS011;16399;51.686;8.684;2023-12-20T00:50:51;12.78;;;6.58;;
29422;SDS011;16399;51.686;8.684;2023-12-20T00:53:53;12.35;;;5.65;;
29422;SDS011;16399;51.686;8.684;2023-12-20T00:56:55;10.28;;;5.28;;
29422;SDS011;16399;51.686;8.684;2023-12-20T00:59:58;10.95;;;4.50;;
29422;SDS011;16399;51.686;8.684;2023-12-20T01:03:00;7.78;;;3.60;;
29422;SDS011;16399;51.686;8.684;2023-12-20T01:06:02;5.92;;;3.20;;
29422;SDS011;16399;51.686;8.684;2023-12-20T01:09:05;11.10;;;3.83;;
29422;SDS011;16399;51.686;8.684;2023-12-20T01:12:08;9.40;;;3.40;;
29422;SDS011;16399;51.686;8.684;2023-12-20T01:15:10;7.92;;;3.52;;
29422;SDS011;16399;51.686;8.684;2023-12-20T01:18:13;6.08;;;2.75;;
29422;SDS011;16399;51.686;8.684;2023-12-20T01:21:15;10.18;;;3.60;;
29422;SDS011;16399;51.686;8.684;2023-12-20T01:24:18;7.00;;;2.80;;
29422;SDS011;16399;51.686;8.684;2023-12-20T01:27:20;8.75;;;2.65;;
29422;SDS011;16399;51.686;8.684;2023-12-20T01:30:22;6.72;;;3.08;;
29422;SDS011;16399;51.686;8.684;2023-12-20T01:33:24;8.78;;;2.60;;
29422;SDS011;16399;51.686;8.684;2023-12-20T01:36:27;9.18;;;3.02;;
29422;SDS011;16399;51.686;8.684;2023-12-20T01:39:29;9.93;;;2.80;;
29422;SDS011;16399;51.686;8.684;2023-12-20T01:42:32;7.55;;;3.00;;
29422;SDS011;16399;51.686;8.684;2023-12-20T01:45:34;6.78;;;3.17;;
29422;SDS011;16399;51.686;8.684;2023-12-20T01:48:36;9.63;;;3.52;;
29422;SDS011;16399;51.686;8.684;2023-12-20T01:51:39;9.18;;;3.27;;
29422;SDS011;16399;51.686;8.684;2023-12-20T01:54:41;9.95;;;4.17;;
29422;SDS011;16399;51.686;8.684;2023-12-20T01:57:45;9.55;;;3.67;;
29422;SDS011;16399;51.686;8.684;2023-12-20T02:00:48;9.00;;;3.92;;
29422;SDS011;16399;51.686;8.684;2023-12-20T02:03:50;9.65;;;3.80;;
29422;SDS011;16399;51.686;8.684;2023-12-20T02:06:53;7.30;;;3.92;;
29422;SDS011;16399;51.686;8.684;2023-12-20T02:09:57;14.93;;;4.30;;
29422;SDS011;16399;51.686;8.684;2023-12-20T02:12:59;10.13;;;4.72;;
29422;SDS011;16399;51.686;8.684;2023-12-20T02:16:02;9.53;;;4.12;;
29422;SDS011;16399;51.686;8.684;2023-12-20T02:19:05;15.18;;;4.33;;
29422;SDS011;16399;51.686;8.684;2023-12-20T02:22:10;9.50;;;4.15;;
29422;SDS011;16399;51.686;8.684;2023-12-20T02:25:13;12.03;;;3.98;;
29422;SDS011;16399;51.686;8.684;2023-12-20T02:28:15;14.25;;;4.97;;
29422;SDS011;16399;51.686;8.684;2023-12-20T02:31:20;9.75;;;4.58;;
29422;SDS011;16399;51.686;8.684;2023-12-20T02:34:24;11.28;;;4.20;;
29422;SDS011;16399;51.686;8.684;2023-12-20T02:37:27;11.63;;;4.10;;
29422;SDS011;16399;51.686;8.684;2023-12-20T02:40:29;9.88;;;4.20;;
29422;SDS011;16399;51.686;8.684;2023-12-20T02:43:31;14.03;;;4.75;;
29422;SDS011;16399;51.686;8.684;2023-12-20T02:46:34;8.85;;;4.22;;
29422;SDS011;16399;51.686;8.684;2023-12-20T02:49:36;13.88;;;5.03;;
29422;SDS011;16399;51.686;8.684;2023-12-20T02:52:38;12.63;;;4.80;;
29422;SDS011;16399;51.686;8.684;2023-12-20T02:55:41;13.05;;;4.70;;
29422;SDS011;16399;51.686;8.684;2023-12-20T02:58:43;14.45;;;5.03;;
29422;SDS011;16399;51.686;8.684;2023-12-20T03:01:45;9.23;;;4.85;;
29422;SDS011;16399;51.686;8.684;2023-12-20T03:04:48;12.18;;;4.85;;
29422;SDS011;16399;51.686;8.684;2023-12-20T03:07:50;16.27;;;5.30;;
29422;SDS011;16399;51.686;8.684;2023-12-20T03:10:53;12.80;;;5.40;;
29422;SDS011;16399;51.686;8.684;2023-12-20T03:13:56;13.32;;;5.40;;
29422;SDS011;16399;51.686;8.684;2023-12-20T03:16:58;15.38;;;5.30;;
29422;SDS011;16399;51.686;8.684;2023-12-20T03:20:01;17.40;;;4.85;;
29422;SDS011;16399;51.686;8.684;2023-12-20T03:23:03;10.50;;;4.35;;
29422;SDS011;16399;51.686;8.684;2023-12-20T03:26:08;17.42;;;5.12;;
29422;SDS011;16399;51.686;8.684;2023-12-20T03:29:11;15.80;;;4.90;;
29422;SDS011;16399;51.686;8.684;2023-12-20T03:32:13;13.30;;;4.20;;
29422;SDS011;16399;51.686;8.684;2023-12-20T03:35:15;13.90;;;4.75;;
29422;SDS011;16399;51.686;8.684;2023-12-20T03:38:18;10.58;;;4.37;;
29422;SDS011;16399;51.686;8.684;2023-12-20T03:41:20;13.98;;;3.98;;
29422;SDS011;16399;51.686;8.684;2023-12-20T03:44:22;12.47;;;4.78;;
29422;SDS011;16399;51.686;8.684;2023-12-20T03:47:25;14.65;;;4.85;;
29422;SDS011;16399;51.686;8.684;2023-12-20T03:50:27;11.88;;;4.65;;
29422;SDS011;16399;51.686;8.684;2023-12-20T03:53:30;12.05;;;4.65;;
29422;SDS011;16399;51.686;8.684;2023-12-20T03:56:32;11.78;;;4.03;;
29422;SDS011;16399;51.686;8.684;2023-12-20T03:59:35;14.33;;;4.28;;
29422;SDS011;16399;51.686;8.684;2023-12-20T04:02:38;13.38;;;4.12;;
29422;SDS011;16399;51.686;8.684;2023-12-20T04:05:42;14.35;;;5.22;;
29422;SDS011;16399;51.686;8.684;2023-12-20T04:08:44;12.43;;;4.37;;
29422;SDS011;16399;51.686;8.684;2023-12-20T04:11:46;13.68;;;4.50;;
29422;SDS011;16399;51.686;8.684;2023-12-20T04:14:49;12.15;;;4.22;;
29422;SDS011;16399;51.686;8.684;2023-12-20T04:17:51;20.80;;;5.25;;
29422;SDS011;16399;51.686;8.684;2023-12-20T04:20:53;12.88;;;4.17;;
29422;SDS011;16399;51.686;8.684;2023-12-20T04:23:56;12.23;;;4.37;;
29422;SDS011;16399;51.686;8.684;2023-12-20T04:26:58;16.80;;;4.75;;
29422;SDS011;16399;51.686;8.684;2023-12-20T04:30:01;16.93;;;4.70;;
29422;SDS011;16399;51.686;8.684;2023-12-20T04:33:03;16.85;;;4.53;;
29422;SDS011;16399;51.686;8.684;2023-12-20T04:36:05;12.37;;;4.30;;
29422;SDS011;16399;51.686;8.684;2023-12-20T04:39:09;18.27;;;4.47;;
29422;SDS011;16399;51.686;8.684;2023-12-20T04:42:13;13.45;;;4.17;;
29422;SDS011;16399;51.686;8.684;2023-12-20T04:45:16;11.40;;;4.00;;
29422;SDS011;16399;51.686;8.684;2023-12-20T04:48:20;11.10;;;4.17;;
29422;SDS011;16399;51.686;8.684;2023-12-20T04:51:22;9.23;;;3.77;;
29422;SDS011;16399;51.686;8.684;2023-12-20T04:54:24;12.80;;;3.52;;
29422;SDS011;16399;51.686;8.684;2023-12-20T04:57:27;17.20;;;3.77;;
29422;SDS011;16399;51.686;8.684;2023-12-20T05:00:29;15.13;;;4.03;;
29422;SDS011;16399;51.686;8.684;2023-12-20T05:03:32;10.75;;;3.92;;
29422;SDS011;16399;51.686;8.684;2023-12-20T05:06:34;19.92;;;4.28;;
29422;SDS011;16399;51.686;8.684;2023-12-20T05:09:36;19.85;;;5.12;;
29422;SDS011;16399;51.686;8.684;2023-12-20T05:12:39;20.32;;;4.47;;
29422;SDS011;16399;51.686;8.684;2023-12-20T05:15:41;13.95;;;4.10;;
29422;SDS011;16399;51.686;8.684;2023-12-20T05:18:44;16.85;;;3.98;;
29422;SDS011;16399;51.686;8.684;2023-12-20T05:21:47;19.30;;;4.50;;
29422;SDS011;16399;51.686;8.684;2023-12-20T05:24:49;10.05;;;3.70;;
29422;SDS011;16399;51.686;8.684;2023-12-20T05:27:52;16.07;;;4.47;;
29422;SDS011;16399;51.686;8.684;2023-12-20T05:30:54;17.85;;;4.25;;
29422;SDS011;16399;51.686;8.684;2023-12-20T05:33:56;13.45;;;3.65;;
29422;SDS011;16399;51.686;8.684;2023-12-20T05:36:59;17.67;;;4.53;;
29422;SDS011;16399;51.686;8.684;2023-12-20T05:40:02;12.25;;;3.75;;
29422;SDS011;16399;51.686;8.684;2023-12-20T05:43:05;16.37;;;4.85;;
29422;SDS011;16399;51.686;8.684;2023-12-20T05:46:07;13.43;;;3.92;;
29422;SDS011;16399;51.686;8.684;2023-12-20T05:49:14;17.05;;;4.47;;
29422;SDS011;16399;51.686;8.684;2023-12-20T05:52:16;19.73;;;4.62;;
29422;SDS011;16399;51.686;8.684;2023-12-20T05:55:18;17.67;;;4.80;;
29422;SDS011;16399;51.686;8.684;2023-12-20T05:58:20;17.75;;;4.60;;
29422;SDS011;16399;51.686;8.684;2023-12-20T06:01:23;10.40;;;4.22;;
29422;SDS011;16399;51.686;8.684;2023-12-20T06:04:25;14.00;;;4.28;;
29422;SDS011;16399;51.686;8.684;2023-12-20T06:07:27;12.40;;;5.30;;
29422;SDS011;16399;51.686;8.684;2023-12-20T06:10:30;19.75;;;5.78;;
29422;SDS011;16399;51.686;8.684;2023-12-20T06:13:32;22.35;;;6.58;;
29422;SDS011;16399;51.686;8.684;2023-12-20T06:16:34;16.07;;;5.17;;
29422;SDS011;16399;51.686;8.684;2023-12-20T06:19:37;19.67;;;5.10;;
29422;SDS011;16399;51.686;8.684;2023-12-20T06:22:39;17.23;;;5.33;;
29422;SDS011;16399;51.686;8.684;2023-12-20T06:25:41;12.45;;;5.22;;
29422;SDS011;16399;51.686;8.684;2023-12-20T06:28:43;17.23;;;5.75;;
29422;SDS011;16399;51.686;8.684;2023-12-20T06:31:46;19.50;;;5.47;;
29422;SDS011;16399;51.686;8.684;2023-12-20T06:34:49;20.82;;;6.33;;
29422;SDS011;16399;51.686;8.684;2023-12-20T06:37:51;21.80;;;6.33;;
29422;SDS011;16399;51.686;8.684;2023-12-20T06:40:53;28.27;;;7.67;;
29422;SDS011;16399;51.686;8.684;2023-12-20T06:43:57;19.83;;;6.43;;
29422;SDS011;16399;51.686;8.684;2023-12-20T06:46:59;22.15;;;7.17;;
29422;SDS011;16399;51.686;8.684;2023-12-20T06:50:02;20.27;;;5.95;;
29422;SDS011;16399;51.686;8.684;2023-12-20T06:53:04;22.98;;;7.22;;
29422;SDS011;16399;51.686;8.684;2023-12-20T06:56:07;17.95;;;6.33;;
29422;SDS011;16399;51.686;8.684;2023-12-20T06:59:12;18.80;;;6.42;;
29422;SDS011;16399;51.686;8.684;2023-12-20T07:02:14;16.85;;;5.58;;
29422;SDS011;16399;51.686;8.684;2023-12-20T07:05:17;14.95;;;5.45;;
29422;SDS011;16399;51.686;8.684;2023-12-20T07:08:20;24.12;;;6.87;;
29422;SDS011;16399;51.686;8.684;2023-12-20T07:11:22;22.25;;;6.45;;
29422;SDS011;16399;51.686;8.684;2023-12-20T07:14:25;20.23;;;7.03;;
29422;SDS011;16399;51.686;8.684;2023-12-20T07:17:28;21.82;;;6.92;;
29422;SDS011;16399;51.686;8.684;2023-12-20T07:20:30;21.15;;;6.78;;
29422;SDS011;16399;51.686;8.684;2023-12-20T07:23:32;19.73;;;5.85;;
29422;SDS011;16399;51.686;8.684;2023-12-20T07:26:35;17.70;;;5.70;;
29422;SDS011;16399;51.686;8.684;2023-12-20T07:29:39;32.00;;;6.87;;
29422;SDS011;16399;51.686;8.684;2023-12-20T07:32:41;15.30;;;5.40;;
29422;SDS011;16399;51.686;8.684;2023-12-20T07:35:43;22.07;;;6.35;;
29422;SDS011;16399;51.686;8.684;2023-12-20T07:38:46;21.82;;;5.83;;
29422;SDS011;16399;51.686;8.684;2023-12-20T07:41:48;21.17;;;6.20;;
29422;SDS011;16399;51.686;8.684;2023-12-20T07:44:51;18.87;;;5.50;;
29422;SDS011;16399;51.686;8.684;2023-12-20T07:47:53;23.35;;;6.12;;
29422;SDS011;16399;51.686;8.684;2023-12-20T07:50:56;23.90;;;6.80;;
29422;SDS011;16399;51.686;8.684;2023-12-20T07:53:58;22.85;;;6.55;;
29422;SDS011;16399;51.686;8.684;2023-12-20T07:57:00;16.67;;;5.72;;
29422;SDS011;16399;51.686;8.684;2023-12-20T08:00:03;19.52;;;5.65;;
29422;SDS011;16399;51.686;8.684;2023-12-20T08:03:05;23.98;;;5.87;;
29422;SDS011;16399;51.686;8.684;2023-12-20T08:06:08;24.87;;;4.90;;
29422;SDS011;16399;51.686;8.684;2023-12-20T08:09:10;19.92;;;5.40;;
29422;SDS011;16399;51.686;8.684;2023-12-20T08:12:12;18.20;;;5.00;;
29422;SDS011;16399;51.686;8.684;2023-12-20T08:15:16;21.93;;;5.08;;
29422;SDS011;16399;51.686;8.684;2023-12-20T08:18:18;16.05;;;4.72;;
29422;SDS011;16399;51.686;8.684;2023-12-20T08:21:20;20.68;;;5.08;;
29422;SDS011;16399;51.686;8.684;2023-12-20T08:24:23;16.62;;;4.80;;
29422;SDS011;16399;51.686;8.684;2023-12-20T08:27:25;19.77;;;5.05;;
29422;SDS011;16399;51.686;8.684;2023-12-20T08:30:27;21.25;;;5.40;;
29422;SDS011;16399;51.686;8.684;2023-12-20T08:33:31;23.12;;;5.58;;
29422;SDS011;16399;51.686;8.684;2023-12-20T08:36:33;15.53;;;4.62;;
29422;SDS011;16399;51.686;8.684;2023-12-20T08:39:36;16.95;;;5.25;;
29422;SDS011;16399;51.686;8.684;2023-12-20T08:42:38;22.70;;;5.15;;
29422;SDS011;16399;51.686;8.684;2023-12-20T08:45:40;14.75;;;4.70;;
29422;SDS011;16399;51.686;8.684;2023-12-20T08:48:43;22.65;;;5.08;;
29422;SDS011;16399;51.686;8.684;2023-12-20T08:51:45;24.23;;;6.90;;
29422;SDS011;16399;51.686;8.684;2023-12-20T08:54:47;16.30;;;5.35;;
29422;SDS011;16399;51.686;8.684;2023-12-20T08:57:51;14.83;;;4.87;;
29422;SDS011;16399;51.686;8.684;2023-12-20T09:00:53;18.67;;;5.03;;
29422;SDS011;16399;51.686;8.684;2023-12-20T09:03:56;18.35;;;4.53;;
29422;SDS011;16399;51.686;8.684;2023-12-20T09:06:59;20.08;;;4.90;;
29422;SDS011;16399;51.686;8.684;2023-12-20T09:10:02;15.78;;;5.12;;
29422;SDS011;16399;51.686;8.684;2023-12-20T09:13:04;18.52;;;5.85;;
29422;SDS011;16399;51.686;8.684;2023-12-20T09:16:06;13.93;;;4.42;;
29422;SDS011;16399;51.686;8.684;2023-12-20T09:19:09;18.57;;;5.20;;
29422;SDS011;16399;51.686;8.684;2023-12-20T09:22:12;16.87;;;3.95;;
29422;SDS011;16399;51.686;8.684;2023-12-20T09:25:14;13.90;;;4.72;;
29422;SDS011;16399;51.686;8.684;2023-12-20T09:28:18;14.27;;;4.40;;
29422;SDS011;16399;51.686;8.684;2023-12-20T09:31:20;18.90;;;4.28;;
29422;SDS011;16399;51.686;8.684;2023-12-20T09:34:23;13.43;;;4.33;;
29422;SDS011;16399;51.686;8.684;2023-12-20T09:37:26;14.03;;;4.03;;
29422;SDS011;16399;51.686;8.684;2023-12-20T09:40:29;22.37;;;4.47;;
29422;SDS011;16399;51.686;8.684;2023-12-20T09:43:35;17.85;;;4.53;;
29422;SDS011;16399;51.686;8.684;2023-12-20T09:46:39;13.62;;;4.08;;
29422;SDS011;16399;51.686;8.684;2023-12-20T09:49:44;16.23;;;5.00;;
29422;SDS011;16399;51.686;8.684;2023-12-20T09:52:52;18.35;;;4.67;;
29422;SDS011;16399;51.686;8.684;2023-12-20T09:55:52;19.40;;;5.75;;
29422;SDS011;16399;51.686;8.684;2023-12-20T09:58:54;18.07;;;4.72;;
29422;SDS011;16399;51.686;8.684;2023-12-20T10:01:57;19.85;;;5.60;;
29422;SDS011;16399;51.686;8.684;2023-12-20T10:05:01;31.65;;;7.42;;
29422;SDS011;16399;51.686;8.684;2023-12-20T10:08:05;18.67;;;5.27;;
29422;SDS011;16399;51.686;8.684;2023-12-20T10:11:08;16.40;;;4.95;;
29422;SDS011;16399;51.686;8.684;2023-12-20T10:14:11;13.08;;;4.95;;
29422;SDS011;16399;51.686;8.684;2023-12-20T10:17:13;13.05;;;4.70;;
29422;SDS011;16399;51.686;8.684;2023-12-20T10:20:15;16.05;;;4.95;;
29422;SDS011;16399;51.686;8.684;2023-12-20T10:23:18;19.27;;;4.87;;
29422;SDS011;16399;51.686;8.684;2023-12-20T10:26:21;17.37;;;4.70;;
29422;SDS011;16399;51.686;8.684;2023-12-20T10:29:24;13.43;;;4.05;;
29422;SDS011;16399;51.686;8.684;2023-12-20T10:32:27;15.40;;;4.55;;
29422;SDS011;16399;51.686;8.684;2023-12-20T10:35:29;14.95;;;5.00;;
29422;SDS011;16399;51.686;8.684;2023-12-20T10:38:32;12.40;;;4.45;;
29422;SDS011;16399;51.686;8.684;2023-12-20T10:41:37;14.58;;;4.80;;
29422;SDS011;16399;51.686;8.684;2023-12-20T10:44:41;11.88;;;4.12;;
29422;SDS011;16399;51.686;8.684;2023-12-20T10:47:47;11.30;;;4.20;;
29422;SDS011;16399;51.686;8.684;2023-12-20T10:50:51;13.95;;;4.50;;
29422;SDS011;16399;51.686;8.684;2023-12-20T10:53:55;18.87;;;4.50;;
29422;SDS011;16399;51.686;8.684;2023-12-20T11:00:05;19.77;;;4.62;;
29422;SDS011;16399;51.686;8.684;2023-12-20T11:03:11;14.00;;;4.12;;
29422;SDS011;16399;51.686;8.684;2023-12-20T11:06:32;19.60;;;4.42;;
29422;SDS011;16399;51.686;8.684;2023-12-20T11:13:13;11.35;;;3.95;;
29422;SDS011;16399;51.686;8.684;2023-12-20T11:16:17;10.33;;;3.97;;
29422;SDS011;16399;51.686;8.684;2023-12-20T11:19:19;18.92;;;5.03;;
29422;SDS011;16399;51.686;8.684;2023-12-20T11:22:22;15.83;;;3.83;;
29422;SDS011;16399;51.686;8.684;2023-12-20T11:25:28;10.28;;;3.40;;
29422;SDS011;16399;51.686;8.684;2023-12-20T11:28:30;17.73;;;4.40;;
29422;SDS011;16399;51.686;8.684;2023-12-20T11:31:39;14.13;;;4.37;;
29422;SDS011;16399;51.686;8.684;2023-12-20T11:34:38;14.60;;;4.22;;
29422;SDS011;16399;51.686;8.684;2023-12-20T11:37:42;19.10;;;4.33;;
29422;SDS011;16399;51.686;8.684;2023-12-20T11:40:47;23.57;;;4.90;;
29422;SDS011;16399;51.686;8.684;2023-12-20T11:43:53;15.48;;;4.30;;
29422;SDS011;16399;51.686;8.684;2023-12-20T11:46:55;13.53;;;4.00;;
29422;SDS011;16399;51.686;8.684;2023-12-20T11:49:58;16.30;;;4.85;;
29422;SDS011;16399;51.686;8.684;2023-12-20T11:53:02;13.15;;;4.80;;
29422;SDS011;16399;51.686;8.684;2023-12-20T11:56:07;16.23;;;4.55;;
29422;SDS011;16399;51.686;8.684;2023-12-20T11:59:10;16.10;;;4.65;;
29422;SDS011;16399;51.686;8.684;2023-12-20T12:02:13;15.95;;;4.30;;
29422;SDS011;16399;51.686;8.684;2023-12-20T12:05:15;15.98;;;4.70;;
29422;SDS011;16399;51.686;8.684;2023-12-20T12:08:18;18.05;;;4.95;;
29422;SDS011;16399;51.686;8.684;2023-12-20T12:11:20;13.40;;;4.40;;
29422;SDS011;16399;51.686;8.684;2023-12-20T12:14:23;15.78;;;4.30;;
29422;SDS011;16399;51.686;8.684;2023-12-20T12:17:26;19.23;;;5.00;;
29422;SDS011;16399;51.686;8.684;2023-12-20T12:20:28;15.85;;;4.60;;
29422;SDS011;16399;51.686;8.684;2023-12-20T12:23:30;18.32;;;3.98;;
29422;SDS011;16399;51.686;8.684;2023-12-20T12:26:33;13.70;;;4.53;;
29422;SDS011;16399;51.686;8.684;2023-12-20T12:29:36;20.15;;;5.17;;
29422;SDS011;16399;51.686;8.684;2023-12-20T12:36:01;14.03;;;5.15;;
29422;SDS011;16399;51.686;8.684;2023-12-20T12:39:05;15.85;;;4.95;;
29422;SDS011;16399;51.686;8.684;2023-12-20T12:42:07;15.60;;;5.53;;
29422;SDS011;16399;51.686;8.684;2023-12-20T12:45:10;13.43;;;4.17;;
29422;SDS011;16399;51.686;8.684;2023-12-20T12:48:12;18.98;;;5.20;;
29422;SDS011;16399;51.686;8.684;2023-12-20T12:51:15;22.80;;;5.60;;
29422;SDS011;16399;51.686;8.684;2023-12-20T12:54:17;15.83;;;4.50;;
29422;SDS011;16399;51.686;8.684;2023-12-20T12:57:20;15.68;;;5.03;;
29422;SDS011;16399;51.686;8.684;2023-12-20T13:00:22;14.28;;;4.12;;
29422;SDS011;16399;51.686;8.684;2023-12-20T13:03:25;14.80;;;4.45;;
29422;SDS011;16399;51.686;8.684;2023-12-20T13:06:27;15.53;;;4.22;;
29422;SDS011;16399;51.686;8.684;2023-12-20T13:09:30;15.43;;;4.15;;
29422;SDS011;16399;51.686;8.684;2023-12-20T13:12:32;15.18;;;3.83;;
29422;SDS011;16399;51.686;8.684;2023-12-20T13:15:34;8.28;;;3.60;;
29422;SDS011;16399;51.686;8.684;2023-12-20T13:18:36;16.97;;;4.35;;
29422;SDS011;16399;51.686;8.684;2023-12-20T13:21:40;11.45;;;3.90;;
29422;SDS011;16399;51.686;8.684;2023-12-20T13:24:43;10.20;;;3.60;;
29422;SDS011;16399;51.686;8.684;2023-12-20T13:27:45;8.70;;;3.30;;
29422;SDS011;16399;51.686;8.684;2023-12-20T13:30:47;16.25;;;4.12;;
29422;SDS011;16399;51.686;8.684;2023-12-20T13:33:50;9.98;;;3.70;;
29422;SDS011;16399;51.686;8.684;2023-12-20T13:36:52;10.05;;;3.70;;
29422;SDS011;16399;51.686;8.684;2023-12-20T13:39:55;15.65;;;4.55;;
29422;SDS011;16399;51.686;8.684;2023-12-20T13:42:57;15.20;;;4.17;;
29422;SDS011;16399;51.686;8.684;2023-12-20T13:45:59;13.85;;;4.40;;
29422;SDS011;16399;51.686;8.684;2023-12-20T13:49:02;12.80;;;3.95;;
29422;SDS011;16399;51.686;8.684;2023-12-20T13:52:05;14.50;;;4.35;;
29422;SDS011;16399;51.686;8.684;2023-12-20T13:55:08;10.28;;;3.95;;
29422;SDS011;16399;51.686;8.684;2023-12-20T13:58:11;15.15;;;5.20;;
29422;SDS011;16399;51.686;8.684;2023-12-20T14:01:13;16.87;;;4.62;;
29422;SDS011;16399;51.686;8.684;2023-12-20T14:04:16;15.68;;;4.35;;
29422;SDS011;16399;51.686;8.684;2023-12-20T14:07:18;14.03;;;6.08;;
29422;SDS011;16399;51.686;8.684;2023-12-20T14:10:21;12.00;;;4.47;;
29422;SDS011;16399;51.686;8.684;2023-12-20T14:13:23;18.15;;;4.67;;
29422;SDS011;16399;51.686;8.684;2023-12-20T14:16:26;13.85;;;4.70;;
29422;SDS011;16399;51.686;8.684;2023-12-20T14:19:28;12.07;;;4.87;;
29422;SDS011;16399;51.686;8.684;2023-12-20T14:22:30;14.23;;;5.17;;
29422;SDS011;16399;51.686;8.684;2023-12-20T14:25:33;13.05;;;5.22;;
29422;SDS011;16399;51.686;8.684;2023-12-20T14:28:37;15.40;;;5.85;;
29422;SDS011;16399;51.686;8.684;2023-12-20T14:31:40;13.65;;;4.87;;
29422;SDS011;16399;51.686;8.684;2023-12-20T14:34:42;11.53;;;4.87;;
29422;SDS011;16399;51.686;8.684;2023-12-20T14:37:44;14.68;;;5.10;;
29422;SDS011;16399;51.686;8.684;2023-12-20T14:40:46;14.85;;;4.95;;
29422;SDS011;16399;51.686;8.684;2023-12-20T14:43:50;15.15;;;5.42;;
29422;SDS011;16399;51.686;8.684;2023-12-20T14:46:53;14.85;;;5.10;;
29422;SDS011;16399;51.686;8.684;2023-12-20T14:49:56;19.40;;;5.30;;
29422;SDS011;16399;51.686;8.684;2023-12-20T14:52:58;15.78;;;5.35;;
29422;SDS011;16399;51.686;8.684;2023-12-20T14:56:02;16.73;;;5.87;;
29422;SDS011;16399;51.686;8.684;2023-12-20T14:59:05;12.43;;;5.60;;
29422;SDS011;16399;51.686;8.684;2023-12-20T15:02:08;20.80;;;5.65;;
29422;SDS011;16399;51.686;8.684;2023-12-20T15:05:11;18.50;;;5.45;;
29422;SDS011;16399;51.686;8.684;2023-12-20T15:08:15;14.90;;;5.10;;
29422;SDS011;16399;51.686;8.684;2023-12-20T15:11:17;17.30;;;5.33;;
29422;SDS011;16399;51.686;8.684;2023-12-20T15:14:19;16.17;;;7.70;;
29422;SDS011;16399;51.686;8.684;2023-12-20T15:17:22;15.78;;;6.20;;
29422;SDS011;16399;51.686;8.684;2023-12-20T15:20:25;12.45;;;5.45;;
29422;SDS011;16399;51.686;8.684;2023-12-20T15:23:28;15.85;;;5.55;;
29422;SDS011;16399;51.686;8.684;2023-12-20T15:26:32;17.57;;;6.15;;
29422;SDS011;16399;51.686;8.684;2023-12-20T15:29:35;11.35;;;5.58;;
29422;SDS011;16399;51.686;8.684;2023-12-20T15:32:37;14.43;;;5.47;;
29422;SDS011;16399;51.686;8.684;2023-12-20T15:35:40;14.95;;;5.28;;
29422;SDS011;16399;51.686;8.684;2023-12-20T15:38:43;14.90;;;5.97;;
29422;SDS011;16399;51.686;8.684;2023-12-20T15:41:45;16.67;;;5.58;;
29422;SDS011;16399;51.686;8.684;2023-12-20T15:44:47;14.98;;;6.08;;
29422;SDS011;16399;51.686;8.684;2023-12-20T15:47:50;13.38;;;5.75;;
29422;SDS011;16399;51.686;8.684;2023-12-20T15:50:52;15.45;;;6.28;;
29422;SDS011;16399;51.686;8.684;2023-12-20T15:53:55;15.68;;;7.10;;
29422;SDS011;16399;51.686;8.684;2023-12-20T15:56:57;15.32;;;6.58;;
29422;SDS011;16399;51.686;8.684;2023-12-20T16:00:00;20.92;;;8.80;;
29422;SDS011;16399;51.686;8.684;2023-12-20T16:03:03;25.88;;;13.13;;
29422;SDS011;16399;51.686;8.684;2023-12-20T16:06:05;13.88;;;6.40;;
29422;SDS011;16399;51.686;8.684;2023-12-20T16:09:08;13.85;;;6.28;;
29422;SDS011;16399;51.686;8.684;2023-12-20T16:12:11;12.78;;;5.22;;
29422;SDS011;16399;51.686;8.684;2023-12-20T16:15:13;14.33;;;6.15;;
29422;SDS011;16399;51.686;8.684;2023-12-20T16:18:15;11.20;;;5.40;;
29422;SDS011;16399;51.686;8.684;2023-12-20T16:21:17;12.35;;;4.85;;
29422;SDS011;16399;51.686;8.684;2023-12-20T16:24:20;14.90;;;5.58;;
29422;SDS011;16399;51.686;8.684;2023-12-20T16:27:22;15.00;;;5.60;;
29422;SDS011;16399;51.686;8.684;2023-12-20T16:30:24;13.00;;;6.05;;
29422;SDS011;16399;51.686;8.684;2023-12-20T16:33:27;18.85;;;6.83;;
29422;SDS011;16399;51.686;8.684;2023-12-20T16:39:51;14.40;;;7.42;;
29422;SDS011;16399;51.686;8.684;2023-12-20T16:42:53;20.43;;;6.55;;
29422;SDS011;16399;51.686;8.684;2023-12-20T16:45:57;17.32;;;6.22;;
29422;SDS011;16399;51.686;8.684;2023-12-20T16:49:00;17.27;;;7.15;;
29422;SDS011;16399;51.686;8.684;2023-12-20T16:52:03;19.05;;;7.53;;
29422;SDS011;16399;51.686;8.684;2023-12-20T16:55:07;16.07;;;8.10;;
29422;SDS011;16399;51.686;8.684;2023-12-20T16:58:10;16.73;;;7.15;;
29422;SDS011;16399;51.686;8.684;2023-12-20T17:01:13;19.67;;;7.40;;
29422;SDS011;16399;51.686;8.684;2023-12-20T17:04:17;14.27;;;7.30;;
29422;SDS011;16399;51.686;8.684;2023-12-20T17:07:19;18.45;;;7.83;;
29422;SDS011;16399;51.686;8.684;2023-12-20T17:10:21;19.10;;;7.97;;
29422;SDS011;16399;51.686;8.684;2023-12-20T17:13:24;21.48;;;8.63;;
29422;SDS011;16399;51.686;8.684;2023-12-20T17:16:28;20.40;;;8.07;;
29422;SDS011;16399;51.686;8.684;2023-12-20T17:19:30;22.15;;;7.15;;
29422;SDS011;16399;51.686;8.684;2023-12-20T17:22:32;20.90;;;7.60;;
29422;SDS011;16399;51.686;8.684;2023-12-20T17:25:35;16.73;;;7.97;;
29422;SDS011;16399;51.686;8.684;2023-12-20T17:28:39;18.07;;;7.80;;
29422;SDS011;16399;51.686;8.684;2023-12-20T17:31:42;18.15;;;7.17;;
29422;SDS011;16399;51.686;8.684;2023-12-20T17:34:44;15.40;;;7.60;;
29422;SDS011;16399;51.686;8.684;2023-12-20T17:37:46;19.32;;;8.40;;
29422;SDS011;16399;51.686;8.684;2023-12-20T17:40:49;15.10;;;7.25;;
29422;SDS011;16399;51.686;8.684;2023-12-20T17:43:51;14.55;;;6.95;;
29422;SDS011;16399;51.686;8.684;2023-12-20T17:46:53;13.60;;;7.42;;
29422;SDS011;16399;51.686;8.684;2023-12-20T17:49:56;20.43;;;8.18;;
29422;SDS011;16399;51.686;8.684;2023-12-20T17:52:58;17.23;;;7.65;;
29422;SDS011;16399;51.686;8.684;2023-12-20T17:56:00;16.65;;;8.03;;
29422;SDS011;16399;51.686;8.684;2023-12-20T17:59:03;17.82;;;8.30;;
29422;SDS011;16399;51.686;8.684;2023-12-20T18:02:05;20.08;;;7.80;;
29422;SDS011;16399;51.686;8.684;2023-12-20T18:05:07;23.70;;;7.75;;
29422;SDS011;16399;51.686;8.684;2023-12-20T18:08:10;15.70;;;7.40;;
29422;SDS011;16399;51.686;8.684;2023-12-20T18:11:12;14.05;;;7.15;;
29422;SDS011;16399;51.686;8.684;2023-12-20T18:14:14;16.67;;;6.80;;
29422;SDS011;16399;51.686;8.684;2023-12-20T18:17:17;18.92;;;7.08;;
29422;SDS011;16399;51.686;8.684;2023-12-20T18:20:19;21.97;;;7.03;;